Luca Ranieri

Recruteur en chef - Cesena
25 Juin 2028
Dimanche
Processus

Personnalité

Adaptabilité (14) Ambition (1) Controverse (5) Loyauté (19) Pression (14) Professionnalisme (13) Sportivité (9) Tempérament (7)

Profil

Style d'entraînement Démocratique
Diplôme Continental A
Détermination 7
Gestion des joueurs 7
Motivation 10
Discipline 6
Satisfaction professionnelle
100%
Fatigue
0%
Rôle Recruteur en chef
Salaire 35.2K p/s
Contrat 14.03.2029

Performance

Comportement Bon
Efficacité de l'entraînement
48%
Développement des joueurs
45%
Prévention des blessures
35%
Mise en place tactique
25%

Événements récents

A évalué un joueur maintenant
A participé à une réunion de recrutement 7j
A présenté un dossier au conseil 7j
A présenté un dossier au conseil 7j
A participé à une réunion de recrutement 14j
A présenté un dossier au conseil 14j
A présenté un dossier au conseil 21j
A présenté un dossier au conseil 21j

Suivi en cours

171
Joueur Club Statut Capacité Confiance Observé Dernière observation Dernier vote
Shea Lacey Crystal Palace Actif 133 / 132 40% 2 19.06.2028 -
Josh Nichols Oldham Athletic Actif 120 / 132 40% 4 19.06.2028 -
Christian Aucelli Trento Perdu 113 / 108 76% 1 19.06.2028 -
Ryan Oné Sheffield United Actif 119 / 135 40% 1 19.06.2028 -
Matteo Bianchetti Cremonese Perdu 125 / 125 60% 1 12.06.2028 -
Nicolò Brighenti Catanzaro Perdu 112 / 103 76% 1 07.06.2028 -
Luca Mazzeo Picerno Perdu 107 / 98 76% 1 06.06.2028 -
Babis Kostoulas Oxford United Actif 148 / 156 40% 6 31.05.2028 -
Amin Nabizada Exeter City Actif 114 / 112 40% 3 31.05.2028 -
Eduard Ihnatov Ospitaletto Actif 96 / 110 40% 3 31.05.2028 -
Honest Ahanor Atalanta Actif 138 / 139 40% 7 30.05.2028 -
Igor Tyjon Barrow AFC Actif 116 / 134 40% 2 30.05.2028 -
Leo Pecover Swindon Town Actif 103 / 109 40% 1 30.05.2028 -
Alphadjo Cissé Lecce Actif 136 / 143 40% 2 28.05.2028 -
Christos Mouzakitis Hull City Actif 140 / 148 40% 4 27.05.2028 -
Ryan Kavuma-McQueen Accrington Stanley Actif 123 / 119 40% 2 27.05.2028 -
Mattia Esposito Virtus Verona Actif 82 / 102 40% 1 25.05.2028 -
Eli Junior Kroupi Bournemouth Actif 144 / 143 40% 4 24.05.2028 -
Henrique Carmo Sochi Actif 124 / 149 40% 4 24.05.2028 -
Sindre Walle Egeli Udinese Actif 143 / 142 40% 2 23.05.2028 -
Rio Ngumoha Plymouth Argyle Actif 147 / 153 40% 3 23.05.2028 -
Gabe Forsyth Colchester United Actif 114 / 121 40% 1 22.05.2028 -
Josh King Newcastle United Actif 143 / 160 40% 6 21.05.2028 -
Noah Fernandez PSV Actif 121 / 125 40% 2 21.05.2028 -
Ryan McAidoo Oldham Athletic Actif 128 / 122 40% 3 21.05.2028 -
Romelle Donovan Brentford Actif 131 / 143 40% 3 20.05.2028 -
Wassim Bouziane AZ Actif 129 / 139 40% 1 20.05.2028 -
Tomás Peixoto Porto Actif 104 / 96 40% 1 19.05.2028 -
Ibrahim Fullah Charlton Athletic Actif 125 / 132 40% 1 19.05.2028 -
Gaël Lafont Dolomiti Bellunesi Actif 100 / 118 40% 2 18.05.2028 -
Gabriel Mec Feirense Actif 123 / 124 40% 1 18.05.2028 -
Trey Nyoni Rotherham United Actif 135 / 134 40% 2 17.05.2028 -
Fletcher Boyd Accrington Stanley Actif 105 / 111 40% 1 17.05.2028 -
Tyler Fletcher Rotherham United Actif 105 / 114 40% 6 15.05.2028 -
İsak Vural Audace Cerignola Actif 125 / 116 40% 1 15.05.2028 -
Rodrigo Mora AC Milan Actif 144 / 136 40% 2 12.05.2028 -
Omar Khedr Gillingham Actif 117 / 117 40% 2 12.05.2028 -
Mateus Mané Burnley Actif 139 / 142 40% 1 12.05.2028 -
Andrea Luongo Trento Actif 95 / 103 40% 2 10.05.2028 -
Jamal Iddrissou Pergolettese Actif 104 / 116 40% 1 10.05.2028 -
Ben Broggio Mansfield Town Actif 111 / 123 40% 2 01.05.2028 -
Luca Williams-Barnett Walsall Actif 125 / 134 40% 1 01.05.2028 -
Jake Evans Crewe Alexandra Actif 108 / 112 40% 2 30.04.2028 -
André Miranda Porto Actif 117 / 118 40% 1 25.04.2028 -
Sidiki Chérif Newcastle United Actif 132 / 141 40% 1 19.04.2028 -
Kerim Alajbegović Modena Actif 136 / 142 40% 3 18.04.2028 -
Luke Brooke-Smith Chesterfield Actif 99 / 105 40% 1 18.04.2028 -
Dmitry Pestryakov Krasnodar Actif 124 / 123 40% 3 10.04.2028 -
Itumeleng Jali Spezia Actif 119 / 115 40% 1 10.04.2028 -
Federico Matarán Giana Erminio Actif 107 / 103 40% 7 08.04.2028 -
Riquelme Thompson-Jones Accrington Stanley Actif 111 / 119 40% 4 08.04.2028 -
Nicolas Sport Recife Actif 105 / 108 40% 1 08.04.2028 -
Vinícius Lira São Paulo Actif 118 / 133 40% 6 06.04.2028 -
Daniel Banjaqui Benfica Actif 125 / 134 40% 2 05.04.2028 -
Martim Cunha Porto Actif 108 / 105 40% 1 05.04.2028 -
Olivier Mambwa Young Boys Actif 109 / 128 40% 1 03.04.2028 -
Othniël Raterink Cagliari Actif 120 / 129 40% 3 25.03.2028 -
Andrea Cogoni Cosenza Actif 107 / 126 40% 1 25.03.2028 -
Olivier Leroux Mouscron Actif 99 / 119 40% 3 21.03.2028 -
Claudio Martey Pianese Actif 88 / 80 40% 1 21.03.2028 -
Orazio Pazienza Foggia Actif 98 / 97 40% 1 19.03.2028 -
Jan Bürger Northampton Town Actif 124 / 118 40% 2 18.03.2028 -
Abubakar Adams Aduana Stars Actif 84 / 86 40% 2 15.03.2028 -
Alani Maritimo Actif 109 / 120 40% 1 15.03.2028 -
Andrey Ivlev Nizhniy Novgorod Actif 120 / 110 40% 1 11.03.2028 -
Nathan De Cat SC Freiburg Actif 132 / 149 40% 1 11.03.2028 -
Simone Suppa Virtus Verona Actif 87 / 91 40% 1 11.03.2028 -
Giovanni Leoni Lincoln City Actif 145 / 134 40% 1 09.03.2028 -
Tobiáš Pališčák Zlin Actif 99 / 104 40% 1 08.03.2028 -
Matvey Bardachev Zenit Actif 110 / 106 40% 1 08.03.2028 -
Miguel Figueiredo Benfica Actif 116 / 127 40% 6 07.02.2028 -
Alessio Rizza Livorno Actif 108 / 108 76% 1 10.01.2028 -
Mao Hosoya Santos Actif 134 / 135 67% 1 01.01.2028 -
Bitello Universidad de Chile Actif 135 / 135 68% 1 01.01.2028 -
Facundo Torres Millonarios Actif 134 / 134 67% 1 01.01.2028 -
Sebastián Ramírez Aguilas Doradas Actif 98 / 96 40% 4 31.12.2027 -
Matías Canedo Rampla Juniors Actif 92 / 71 40% 1 31.12.2027 -
Josh Acheampong Everton Actif 139 / 158 40% 2 20.12.2027 -
Luighi Palmeiras Actif 110 / 128 40% 1 20.12.2027 -
Olívio Tomé Benfica Actif 120 / 127 40% 1 20.12.2027 -
Matias Siltanen Malmo FF Actif 119 / 141 40% 6 19.12.2027 -
Edison Gruezo Guadalajara Actif 101 / 102 40% 1 19.12.2027 -
Emmanuel Ndubueze Shooting Stars Actif 88 / 101 40% 5 15.12.2027 -
Nupe Godstime Bayelsa United Actif 85 / 96 40% 2 15.12.2027 -
Gabriele Bertolini Vicenza Actif 101 / 118 40% 2 13.12.2027 -
Francisco Marchant Colo-Colo Actif 89 / 112 40% 1 13.12.2027 -
Victor Hernandez Santa Fe Actif 120 / 136 40% 7 10.12.2027 -
Gianluca Prestianni Benfica Actif 145 / 147 40% 3 10.12.2027 -
Joseph Abah Remo Stars Actif 90 / 102 40% 2 08.12.2027 -
Pedro Baltika Actif 138 / 154 40% 4 07.12.2027 -
Colin Guske Orlando City Actif 104 / 110 40% 2 07.12.2027 -
Senny Mayulu Paris Saint-Germain Actif 144 / 157 40% 1 06.12.2027 -
Giovanni Baroni Talleres Actif 104 / 127 40% 2 04.12.2027 -
Joel Ezra Enyimba Actif 99 / 108 40% 2 04.12.2027 -
Kabiru Abdullahi Barau Actif 92 / 81 40% 3 03.12.2027 -
Ollie Scarles West Ham United Actif 138 / 129 40% 2 02.12.2027 -
Dániel Pintér Inter Miami CF Actif 94 / 90 40% 1 01.12.2027 -
Keyano Marrah Hammarby Actif 88 / 100 40% 1 30.11.2027 -
Musa Malik Ikorodu City Actif 84 / 96 40% 1 26.11.2027 -
Tiago Pucciarelli IF Elfsborg Actif 106 / 98 40% 1 25.11.2027 -
Onyeuche Ujunwa Ikorodu City Actif 88 / 90 40% 3 23.11.2027 -
Abdulrahman Hamisu Niger Tornadoes Actif 87 / 103 40% 1 23.11.2027 -
Olger Escobar CF Montreal Actif 93 / 85 40% 2 22.11.2027 -
Chimobi Igwilo Rangers International Actif 85 / 96 40% 2 21.11.2027 -
Imran Musa Atvidaberg Actif 90 / 82 40% 1 19.11.2027 -
Francisco Triver River Plate Actif 84 / 106 40% 2 16.11.2027 -
Flávio Gonçalves Sporting CP Actif 127 / 127 40% 1 15.11.2027 -
Joel Medina Independiente Actif 102 / 108 40% 1 13.11.2027 -
Matías Arias Vélez Actif 122 / 134 40% 2 10.11.2027 -
Piero Cari Alianza Lima Actif 94 / 88 40% 1 08.11.2027 -
Idris Ajiya Nasarawa United Actif 91 / 84 40% 1 06.11.2027 -
Adrian Skogmar Malmo FF Actif 120 / 138 40% 1 04.11.2027 -
Ruben Ramos LA Galaxy Actif 92 / 103 40% 1 02.11.2027 -
Luis Yanes Real Cartagena Actif 93 / 86 40% 1 02.11.2027 -
Sascha Britschgi AC Milan Actif 123 / 143 40% 6 10.08.2027 -
Pedro Vian Seewald Dolomiti Bellunesi Actif 95 / 112 40% 1 29.05.2027 -
Gady Beyuku Blackburn Rovers Actif 109 / 128 40% 1 29.05.2027 -
Gonçalo Oliveira Benfica Actif 115 / 128 40% 2 28.05.2027 -
Bade Aluko Leicester City Actif 108 / 121 40% 2 28.05.2027 -
Charlie Gray Fleetwood Town Actif 85 / 107 40% 4 26.05.2027 -
Jacopo Bacci Sorrento Actif 94 / 118 40% 2 26.05.2027 -
Bence Dárdai VfL Wolfsburg Actif 134 / 146 40% 4 25.05.2027 -
Ezra Mayers West Ham United Actif 115 / 133 40% 3 24.05.2027 -
Tiago Freitas Benfica Actif 113 / 106 40% 5 22.05.2027 -
Rhys Walters Port Vale Actif 105 / 115 40% 2 16.05.2027 -
Leandro Martins Benfica Actif 98 / 99 40% 3 15.05.2027 -
Andrea Bertoncini Triestina Actif 87 / 87 40% 3 13.05.2027 -
Tommaso Cecotti Carpi Actif 89 / 102 40% 2 12.05.2027 -
Alessandro Zoboletti Sambenedettese Actif 96 / 106 40% 3 06.05.2027 -
Bernardo Lima Porto Actif 102 / 119 40% 3 06.05.2027 -
Kiani Inge Groningen Actif 105 / 119 40% 2 05.05.2027 -
Wessel Kuhn PSV Actif 113 / 110 40% 1 03.05.2027 -
Jake Batty Plymouth Argyle Actif 94 / 111 40% 2 26.04.2027 -
Samuele di Benedetto Twente Actif 107 / 111 40% 1 26.04.2027 -
Juan Pablo De la Reta Rayo Vallecano Actif 114 / 120 40% 1 24.04.2027 -
Riyad Idrissi Cagliari Actif 126 / 131 40% 3 22.04.2027 -
Riley Owen Stevenage Actif 105 / 107 40% 2 20.04.2027 -
David Ozoh Derby County Actif 120 / 132 40% 3 19.04.2027 -
Rivaldo Mkhize Black Aces Actif 92 / 83 40% 2 16.04.2027 -
Pietro Reggiori Pro Patria Actif 91 / 96 40% 4 14.04.2027 -
Moncef Zekri Sporting CP Actif 99 / 105 40% 1 01.04.2027 -
Kazunari Kita Real Sociedad Actif 102 / 109 40% 2 27.03.2027 -
Afriyie Sulemana WAFA Actif 81 / 88 40% 1 23.03.2027 -
Maxim Radchenko Rostov Actif 73 / 78 40% 1 23.03.2027 -
Mpho Khethang FC Diarra Actif 77 / 93 40% 1 20.03.2027 -
Eivind Helland AC Milan Actif 133 / 136 40% 1 11.03.2027 -
Samuele Diodato Lumezzane Actif 90 / 89 40% 1 11.03.2027 -
Federico Valentini Forli Actif 87 / 102 40% 1 10.03.2027 -
Amine Boukamir Charleroi Actif 106 / 94 40% 1 08.03.2027 -
Dean Jali Platinum Stars Actif 91 / 87 40% 1 07.03.2027 -
Matteo Cichella Frosinone Actif 118 / 120 40% 1 06.03.2027 -
Khalis Merah Olympique Lyonnais Actif 116 / 136 40% 1 25.01.2027 -
Francesco D'Alessio Cittadella Actif 114 / 108 69% 1 07.01.2027 -
Sampson Dweh Mallorca Actif 133 / 134 66% 1 01.01.2027 -
Brayan Gil Baltika Actif 121 / 141 40% 2 29.12.2026 -
Etiosa Ighodaro Kaizer Chiefs Actif 104 / 115 40% 1 29.12.2026 -
Martin Sekulić Ural Actif 99 / 103 40% 1 27.12.2026 -
Nicolò Zaniolo Udinese Actif 152 / 130 40% 2 26.12.2026 -
Giacomo Raspadori Atalanta Actif 155 / 131 40% 1 26.12.2026 -
Jordan Zemura Udinese Actif 131 / 139 40% 1 26.12.2026 -
Willem Geubbels Lecce Actif 135 / 129 40% 2 24.12.2026 -
Giorgi Kvernadze Frosinone Actif 128 / 113 40% 2 23.12.2026 -
Luis Caicedo Spartak 1918 Actif 104 / 98 40% 1 23.12.2026 -
Mattia Felici Cagliari Actif 138 / 119 40% 2 17.12.2026 -
Amin Sarr Hellas Verona Actif 133 / 121 40% 3 16.12.2026 -
Mathys Tel Tottenham Actif 148 / 136 40% 1 16.12.2026 -
David Romero Parma Actif 117 / 134 40% 1 14.12.2026 -
Yeangel Montero Naxxar Lions Actif 108 / 116 40% 1 14.12.2026 -
Talles Magno New York City Actif 127 / 135 40% 1 09.12.2026 -
Gianluca Scamacca Atalanta Actif 150 / 149 40% 1 07.12.2026 -
Agustín Medina Lanús Actif 124 / 111 40% 1 06.08.2026 -